新潟空港の過去48時間の天気

新潟空港 (Niigata)

現在時刻: 9/19 08:49 JST (9/18 23:49 UTC) 以下の時間は現地時間です。

過去48時間のMETAR気象情報
時間 風向 風速(m/s) 視程 気温(℃) 湿度(%) 気圧(hPa) 天気現象
19 08:00 北東 4 10km以上 23 78 1014
19 07:00 北北東 6 10km以上 23 73 1015
19 06:10 東北東 5 10km以上 22 83 1014
RJSN 182300Z 04008KT 9999 FEW030 23/19 Q1014
RJSN 182200Z 03011KT 9999 SCT030 23/18 Q1015
RJSN 182110Z 06009KT 030V090 9999 FEW030 BKN040 22/19 Q1014 RMK 1CU030 5CU040 A2995